HA3H LDSP-LHBP
Flight info
| Callsign | HA3H |
|---|---|
| Flight time | N/A |
| Altitude | 20000 |
| Route | LDSP KENEM BAREB ULZAK LHBP |
| Aircraft | BE60/M-FLUV/LB1 |
Departure
| Time | 2026-04-27 16:12 |
|---|---|
| Airport | Split Saint Jerome Airport (LDSP) |
Arrival
| Time | N/A |
|---|---|
| Airport | Budapest Liszt Ferenc International Airport (LHBP) |
| Time | Latitude | Longitude | Altitude | Speed | Heading |
|---|---|---|---|---|---|
| 2026-04-27 15:39 | 43.53828 | 16.30062 | 62 ft | 0 kts | 112° |
| 2026-04-27 15:53 | 43.53829 | 16.30078 | 58 ft | 0 kts | 32° |
| 2026-04-27 16:06 | 43.53831 | 16.30079 | 62 ft | 0 kts | 24° |
| 2026-04-27 16:06 | 43.53838 | 16.30076 | 57 ft | 1 kts | 310° |
| 2026-04-27 16:06 | 43.53840 | 16.30038 | 60 ft | 6 kts | 263° |
| 2026-04-27 16:06 | 43.53854 | 16.30018 | 57 ft | 6 kts | 11° |
| 2026-04-27 16:07 | 43.53891 | 16.30043 | 62 ft | 9 kts | 26° |
| 2026-04-27 16:07 | 43.53926 | 16.30065 | 62 ft | 0 kts | 24° |
| 2026-04-27 16:10 | 43.54022 | 16.30101 | 58 ft | 18 kts | 11° |
| 2026-04-27 16:10 | 43.53782 | 16.29594 | 83 ft | 87 kts | 233° |
| 2026-04-27 16:11 | 43.53377 | 16.28817 | 312 ft | 109 kts | 236° |
| 2026-04-27 16:11 | 43.52247 | 16.26798 | 494 ft | 153 kts | 226° |
| 2026-04-27 16:12 | 43.50674 | 16.24215 | 849 ft | 159 kts | 231° |
| 2026-04-27 16:12 | 43.49983 | 16.23014 | 1000 ft | 160 kts | 231° |
| 2026-04-27 16:12 | 43.48584 | 16.20580 | 1343 ft | 164 kts | 231° |
| 2026-04-27 16:13 | 43.47895 | 16.19323 | 1483 ft | 166 kts | 238° |
| 2026-04-27 16:13 | 43.47639 | 16.16179 | 1700 ft | 179 kts | 286° |
| 2026-04-27 16:13 | 43.48242 | 16.14667 | 1861 ft | 183 kts | 311° |
| 2026-04-27 16:14 | 43.50261 | 16.12488 | 2282 ft | 186 kts | 323° |
| 2026-04-27 16:14 | 43.52332 | 16.10332 | 2716 ft | 187 kts | 322° |